createdAt,value
2022-11-15T00:00:26.259Z,98265.66
2022-11-15T00:01:28.098Z,98266.00
2022-11-15T00:02:29.563Z,98260.34
2022-11-15T00:03:31.365Z,98263.72
2022-11-15T00:04:33.160Z,98261.00
2022-11-15T00:05:37.400Z,98259.47
2022-11-15T00:06:39.159Z,98261.56
2022-11-15T00:07:55.055Z,98256.63
2022-11-15T00:09:01.726Z,98261.13
2022-11-15T00:10:04.063Z,98256.97
2022-11-15T00:11:05.685Z,98249.44
2022-11-15T00:12:07.511Z,98257.53
2022-11-15T00:13:11.302Z,98260.16
2022-11-15T00:14:12.711Z,98263.88
2022-11-15T00:15:14.318Z,98262.34
2022-11-15T00:16:15.858Z,98260.16
2022-11-15T00:17:17.300Z,98254.91
2022-11-15T00:18:19.078Z,98254.47
2022-11-15T00:19:20.572Z,98262.78
2022-11-15T00:20:21.981Z,98257.53
2022-11-15T00:21:23.739Z,98249.56
2022-11-15T00:22:25.243Z,98256.69
2022-11-15T00:23:26.682Z,98255.94
2022-11-15T00:24:28.098Z,98261.50
2022-11-15T00:25:29.513Z,98259.97
2022-11-15T00:26:31.270Z,98259.56
2022-11-15T00:27:32.725Z,98253.97
2022-11-15T00:28:34.277Z,98252.09
2022-11-15T00:29:35.709Z,98256.25
2022-11-15T00:30:37.164Z,98250.88
2022-11-15T00:31:38.948Z,98246.63
2022-11-15T00:32:40.431Z,98257.47
2022-11-15T00:33:44.269Z,98246.97
2022-11-15T00:34:45.685Z,98253.31
2022-11-15T00:35:47.542Z,98254.44
2022-11-15T00:36:48.965Z,98249.94
2022-11-15T00:37:50.387Z,98246.09
2022-11-15T00:38:51.793Z,98241.22
2022-11-15T00:39:53.210Z,98247.97
2022-11-15T00:40:55.032Z,98243.72
2022-11-15T00:41:56.466Z,98243.53
2022-11-15T00:42:58.132Z,98247.91
2022-11-15T00:43:59.557Z,98241.91
2022-11-15T00:45:01.086Z,98248.56
2022-11-15T00:46:03.365Z,98242.88
2022-11-15T00:47:04.895Z,98249.22
2022-11-15T00:48:06.493Z,98250.75
2022-11-15T00:49:07.952Z,98248.88
2022-11-15T00:50:14.128Z,98242.88
2022-11-15T00:51:16.842Z,98240.38
2022-11-15T00:52:18.584Z,98244.53
2022-11-15T00:53:20.038Z,98245.50
2022-11-15T00:54:21.487Z,98244.00
2022-11-15T00:55:22.916Z,98244.00
2022-11-15T00:56:24.695Z,98243.53
2022-11-15T00:57:26.110Z,98241.38
2022-11-15T00:58:27.645Z,98239.50
2022-11-15T00:59:29.114Z,98240.56
2022-11-15T01:00:30.619Z,98237.19
2022-11-15T01:01:32.413Z,98232.28
2022-11-15T01:02:34.094Z,98237.94
2022-11-15T01:03:36.517Z,98236.44
2022-11-15T01:04:37.961Z,98234.16
2022-11-15T01:05:39.437Z,98239.28
2022-11-15T01:06:41.277Z,98236.78
2022-11-15T01:07:42.759Z,98240.16
2022-11-15T01:08:44.196Z,98244.28
2022-11-15T01:09:45.618Z,98232.19
2022-11-15T01:10:47.070Z,98232.19
2022-11-15T01:11:48.835Z,98234.16
2022-11-15T01:12:50.992Z,98234.81
2022-11-15T01:13:52.411Z,98224.22
2022-11-15T01:14:53.928Z,98233.63
2022-11-15T01:15:55.687Z,98237.09
2022-11-15T01:16:57.116Z,98226.94
2022-11-15T01:17:58.557Z,98237.75
2022-11-15T01:19:00.841Z,98235.91
2022-11-15T01:20:02.275Z,98233.28
2022-11-15T01:21:12.307Z,98232.50
2022-11-15T01:22:13.762Z,98231.66
2022-11-15T01:23:15.336Z,98230.13
2022-11-15T01:24:17.283Z,98230.47
2022-11-15T01:25:18.716Z,98227.38
2022-11-15T01:26:20.497Z,98226.19
2022-11-15T01:27:21.909Z,98230.34
2022-11-15T01:28:23.736Z,98223.59
2022-11-15T01:29:25.195Z,98232.09
2022-11-15T01:30:26.635Z,98229.13
2022-11-15T01:31:28.406Z,98220.84
2022-11-15T01:32:29.930Z,98227.63
2022-11-15T01:33:32.193Z,98219.97
2022-11-15T01:34:33.945Z,98224.78
2022-11-15T01:35:39.983Z,98223.91
2022-11-15T01:36:41.465Z,98220.53
2022-11-15T01:37:43.041Z,98220.53
2022-11-15T01:38:45.108Z,98213.44
2022-11-15T01:39:46.533Z,98222.81
2022-11-15T01:40:48.645Z,98217.91
2022-11-15T01:41:50.081Z,98220.53
2022-11-15T01:42:51.514Z,98220.53
2022-11-15T01:43:55.723Z,98216.38
2022-11-15T01:44:57.209Z,98211.13
2022-11-15T01:46:23.813Z,98221.94
2022-11-15T01:47:39.642Z,98218.44
2022-11-15T01:48:41.115Z,98213.88
2022-11-15T01:49:53.340Z,98212.34
2022-11-15T01:50:55.413Z,98215.72
2022-11-15T01:51:58.386Z,98204.03
2022-11-15T01:53:00.121Z,98207.44
2022-11-15T01:54:11.634Z,98200.31
2022-11-15T01:55:24.130Z,98194.00
2022-11-15T01:56:30.698Z,98194.75
2022-11-15T01:57:32.349Z,98196.31
2022-11-15T01:58:34.705Z,98192.59
2022-11-15T01:59:38.146Z,98187.34
2022-11-15T02:00:40.305Z,98191.06
2022-11-15T02:01:42.565Z,98183.19
2022-11-15T02:02:44.134Z,98186.88
2022-11-15T02:03:55.266Z,98174.56
2022-11-15T02:04:56.761Z,98176.09
2022-11-15T02:05:59.168Z,98179.47
2022-11-15T02:07:04.143Z,98179.81
2022-11-15T02:08:06.913Z,98174.88
2022-11-15T02:09:08.332Z,98177.72
2022-11-15T02:10:13.628Z,98171.84
2022-11-15T02:11:15.402Z,98170.75
2022-11-15T02:12:21.425Z,98173.03
2022-11-15T02:13:23.546Z,98182.75
2022-11-15T02:14:28.799Z,98176.41
2022-11-15T02:15:41.282Z,98170.84
2022-11-15T02:17:20.150Z,98168.66
2022-11-15T02:18:30.016Z,98169.75
2022-11-15T02:19:34.462Z,98169.75
2022-11-15T02:20:38.801Z,98168.78
2022-11-15T02:21:46.214Z,98171.38
2022-11-15T02:23:21.310Z,98169.44
2022-11-15T02:24:38.249Z,98171.31
2022-11-15T02:26:16.805Z,98177.41
2022-11-15T02:28:03.782Z,98166.28
2022-11-15T02:29:12.853Z,98173.59
2022-11-15T02:30:17.374Z,98167.59
2022-11-15T02:31:46.837Z,98161.47
2022-11-15T02:33:09.391Z,98158.97
2022-11-15T02:34:43.275Z,98160.94
2022-11-15T02:36:01.315Z,98158.63
2022-11-15T02:37:13.005Z,98158.44
2022-11-15T02:38:47.042Z,98153.19
2022-11-15T02:40:29.411Z,98157.22
2022-11-15T02:41:34.107Z,98156.78
2022-11-15T02:43:04.328Z,98154.19
2022-11-15T02:44:30.153Z,98148.59
2022-11-15T02:45:40.706Z,98143.69
2022-11-15T02:47:06.853Z,98145.88
2022-11-15T02:48:11.142Z,98138.34
2022-11-15T02:49:15.040Z,98143.25
2022-11-15T02:50:23.127Z,98141.84
2022-11-15T02:51:25.009Z,98136.59
2022-11-15T02:52:27.192Z,98134.75
2022-11-15T02:53:29.282Z,98138.13
2022-11-15T02:54:32.989Z,98133.97
2022-11-15T02:55:42.461Z,98140.28
2022-11-15T02:56:47.287Z,98129.28
2022-11-15T02:58:27.133Z,98127.00
2022-11-15T02:59:34.330Z,98127.97
2022-11-15T03:00:41.912Z,98124.47
2022-11-15T03:02:04.059Z,98127.44
2022-11-15T03:03:24.026Z,98116.97
2022-11-15T03:04:25.413Z,98111.28
2022-11-15T03:05:45.321Z,98119.13
2022-11-15T03:07:12.282Z,98109.09
2022-11-15T03:08:32.370Z,98107.25
2022-11-15T03:10:07.727Z,98114.34
2022-11-15T03:11:18.803Z,98112.03
2022-11-15T03:12:27.981Z,98113.59
2022-11-15T03:13:29.563Z,98108.34
2022-11-15T03:14:44.018Z,98103.41
2022-11-15T03:16:04.886Z,98109.75
2022-11-15T03:17:29.557Z,98113.34
2022-11-15T03:18:39.590Z,98116.66
2022-11-15T03:19:44.005Z,98109.75
2022-11-15T03:20:47.059Z,98108.19
2022-11-15T03:21:49.377Z,98109.28
2022-11-15T03:22:52.351Z,98099.91
2022-11-15T03:23:55.107Z,98103.94
2022-11-15T03:25:01.898Z,98106.25
2022-11-15T03:26:08.438Z,98101.00
2022-11-15T03:27:14.306Z,98107.78
2022-11-15T03:28:24.589Z,98107.00
2022-11-15T03:29:32.621Z,98103.28
2022-11-15T03:30:38.180Z,98095.00
2022-11-15T03:31:50.891Z,98096.09
2022-11-15T03:32:58.826Z,98095.31
2022-11-15T03:34:03.370Z,98097.94
2022-11-15T03:35:12.779Z,98091.59
2022-11-15T03:36:16.451Z,98091.19
2022-11-15T03:37:21.785Z,98091.81
2022-11-15T03:38:26.757Z,98086.94
2022-11-15T03:39:29.981Z,98089.22
2022-11-15T03:40:41.263Z,98091.41
2022-11-15T03:41:58.233Z,98092.16
2022-11-15T03:43:22.848Z,98092.91
2022-11-15T03:44:36.778Z,98095.41
2022-11-15T03:46:00.793Z,98089.75
2022-11-15T03:47:08.906Z,98089.75
2022-11-15T03:48:15.662Z,98095.00
2022-11-15T03:49:23.742Z,98092.94
2022-11-15T03:50:25.990Z,98092.47
2022-11-15T03:51:27.844Z,98090.63
2022-11-15T03:52:33.195Z,98086.28
2022-11-15T03:53:34.859Z,98084.09
2022-11-15T03:54:36.289Z,98088.56
2022-11-15T03:55:37.875Z,98082.56
2022-11-15T03:56:39.650Z,98081.03
2022-11-15T03:57:41.189Z,98084.00
2022-11-15T03:58:42.622Z,98078.75
2022-11-15T03:59:44.050Z,98082.91
2022-11-15T04:00:45.685Z,98083.66
2022-11-15T04:01:47.481Z,98079.94
2022-11-15T04:02:48.918Z,98081.03
2022-11-15T04:03:50.577Z,98079.50
2022-11-15T04:04:52.173Z,98084.00
2022-11-15T04:05:53.645Z,98079.09
2022-11-15T04:06:55.124Z,98078.31
2022-11-15T04:07:56.678Z,98079.41
2022-11-15T04:08:58.520Z,98082.78
2022-11-15T04:10:06.475Z,98084.97
2022-11-15T04:11:08.596Z,98090.72
2022-11-15T04:12:10.051Z,98098.47
2022-11-15T04:13:11.645Z,98096.28
2022-11-15T04:14:13.124Z,98092.91
2022-11-15T04:15:17.534Z,98097.50
2022-11-15T04:16:19.283Z,98096.06
2022-11-15T04:17:20.741Z,98087.13
2022-11-15T04:18:22.915Z,98091.16
2022-11-15T04:19:42.952Z,98093.47
2022-11-15T04:21:03.266Z,98087.13
2022-11-15T04:22:23.521Z,98085.19
2022-11-15T04:23:43.436Z,98085.41
2022-11-15T04:24:44.877Z,98080.81
2022-11-15T04:25:50.102Z,98087.47
2022-11-15T04:26:52.137Z,98081.34
2022-11-15T04:27:53.567Z,98078.72
2022-11-15T04:29:13.282Z,98083.19
2022-11-15T04:30:14.752Z,98083.50
2022-11-15T04:31:16.255Z,98081.22
2022-11-15T04:32:18.078Z,98075.25
2022-11-15T04:33:20.032Z,98084.94
2022-11-15T04:34:21.450Z,98082.75
2022-11-15T04:35:22.921Z,98082.75
2022-11-15T04:36:43.099Z,98081.22
2022-11-15T04:37:49.070Z,98087.09
2022-11-15T04:38:50.900Z,98077.72
2022-11-15T04:39:52.325Z,98076.22
2022-11-15T04:40:53.735Z,98075.88
2022-11-15T04:41:55.489Z,98076.63
2022-11-15T04:43:02.329Z,98069.88
2022-11-15T04:44:05.172Z,98072.81
2022-11-15T04:45:06.996Z,98069.13
2022-11-15T04:46:08.439Z,98068.34
2022-11-15T04:47:10.194Z,98064.22
2022-11-15T04:48:11.612Z,98066.06
2022-11-15T04:49:13.013Z,98065.75
2022-11-15T04:50:15.674Z,98068.03
2022-11-15T04:51:17.276Z,98065.75
2022-11-15T04:52:19.627Z,98073.25
2022-11-15T04:53:21.033Z,98063.88
2022-11-15T04:54:22.509Z,98068.34
2022-11-15T04:55:23.954Z,98066.06
2022-11-15T04:56:25.388Z,98065.28
2022-11-15T04:57:26.812Z,98059.63
2022-11-15T04:58:28.218Z,98062.59
2022-11-15T04:59:29.631Z,98055.38
2022-11-15T05:00:31.151Z,98054.50
2022-11-15T05:01:32.732Z,98046.22
2022-11-15T05:02:53.021Z,98047.31
2022-11-15T05:04:12.754Z,98050.22
2022-11-15T05:05:14.258Z,98043.81
2022-11-15T05:06:15.671Z,98034.75
2022-11-15T05:07:17.434Z,98044.88
2022-11-15T05:08:18.914Z,98043.06
2022-11-15T05:09:22.752Z,98039.84
2022-11-15T05:10:24.229Z,98039.31
2022-11-15T05:11:26.411Z,98038.13
2022-11-15T05:12:28.150Z,98040.72
2022-11-15T05:13:29.794Z,98041.16
2022-11-15T05:14:31.434Z,98036.06
2022-11-15T05:15:32.890Z,98030.81
2022-11-15T05:16:34.390Z,98037.56
2022-11-15T05:17:36.170Z,98038.66
2022-11-15T05:18:37.681Z,98037.56
2022-11-15T05:19:39.460Z,98034.97
2022-11-15T05:20:41.020Z,98034.19
2022-11-15T05:21:42.439Z,98032.56
2022-11-15T05:22:44.217Z,98034.06
2022-11-15T05:23:45.649Z,98030.06
2022-11-15T05:24:47.106Z,98034.06
2022-11-15T05:25:48.537Z,98028.72
2022-11-15T05:26:50.360Z,98035.50
2022-11-15T05:27:52.126Z,98036.13
2022-11-15T05:28:58.163Z,98034.91
2022-11-15T05:29:59.647Z,98032.22
2022-11-15T05:31:21.786Z,98038.63
2022-11-15T05:32:23.548Z,98039.84
2022-11-15T05:33:25.012Z,98037.53
2022-11-15T05:34:27.726Z,98036.97
2022-11-15T05:35:40.796Z,98038.06
2022-11-15T05:36:44.041Z,98039.16
2022-11-15T05:37:45.678Z,98036.53
2022-11-15T05:38:49.238Z,98038.53
2022-11-15T05:39:50.866Z,98026.31
2022-11-15T05:40:52.712Z,98028.63
2022-11-15T05:42:02.344Z,98028.72
2022-11-15T05:43:05.547Z,98027.97
2022-11-15T05:44:10.270Z,98021.22
2022-11-15T05:45:12.296Z,98026.66
2022-11-15T05:46:15.240Z,98026.00
2022-11-15T05:47:25.873Z,98028.16
2022-11-15T05:48:28.258Z,98022.50
2022-11-15T05:49:35.403Z,98028.69
2022-11-15T05:50:42.406Z,98030.56
2022-11-15T05:51:45.682Z,98031.31
2022-11-15T05:52:47.738Z,98023.91
2022-11-15T05:53:50.719Z,98026.22
2022-11-15T05:54:52.766Z,98025.13
2022-11-15T05:55:54.413Z,98031.75
2022-11-15T05:56:57.127Z,98035.44
2022-11-15T05:57:58.834Z,98024.56
2022-11-15T05:59:00.541Z,98029.78
2022-11-15T06:00:02.745Z,98025.19
2022-11-15T06:01:04.436Z,98034.13
2022-11-15T06:02:06.361Z,98023.69
2022-11-15T06:03:07.857Z,98027.06
2022-11-15T06:04:09.325Z,98020.41
2022-11-15T06:05:10.799Z,98024.25
2022-11-15T06:06:16.241Z,98028.38
2022-11-15T06:07:18.007Z,98020.88
2022-11-15T06:08:19.521Z,98019.00
2022-11-15T06:09:21.011Z,98017.63
2022-11-15T06:10:22.433Z,98016.81
2022-11-15T06:11:23.904Z,98016.53
2022-11-15T06:12:25.711Z,98015.44
2022-11-15T06:13:27.149Z,98019.91
2022-11-15T06:14:28.596Z,98026.22
2022-11-15T06:15:30.175Z,98020.66
2022-11-15T06:16:31.723Z,98018.81
2022-11-15T06:17:33.624Z,98023.59
2022-11-15T06:18:36.287Z,98021.00
2022-11-15T06:19:37.785Z,98019.00
2022-11-15T06:20:39.193Z,98018.25
2022-11-15T06:21:40.707Z,98023.91
2022-11-15T06:22:42.174Z,98019.78
2022-11-15T06:23:43.652Z,98014.88
2022-11-15T06:24:45.158Z,98021.63
2022-11-15T06:25:46.639Z,98023.16
2022-11-15T06:26:48.380Z,98028.25
2022-11-15T06:27:53.649Z,98026.72
2022-11-15T06:28:55.098Z,98036.75
2022-11-15T06:29:56.528Z,98041.50
2022-11-15T06:31:04.120Z,98035.31
2022-11-15T06:32:06.214Z,98042.41
2022-11-15T06:33:09.625Z,98032.63
2022-11-15T06:34:11.174Z,98034.44
2022-11-15T06:35:12.897Z,98040.88
2022-11-15T06:36:17.712Z,98040.13
2022-11-15T06:37:19.418Z,98038.69
2022-11-15T06:38:20.927Z,98036.09
2022-11-15T06:39:22.422Z,98042.97
2022-11-15T06:40:23.886Z,98038.53
2022-11-15T06:41:25.345Z,98042.19
2022-11-15T06:42:26.768Z,98039.50
2022-11-15T06:43:28.258Z,98038.81
2022-11-15T06:44:29.743Z,98041.91
2022-11-15T06:45:31.834Z,98041.78
2022-11-15T06:46:33.293Z,98044.38
2022-11-15T06:47:34.750Z,98039.59
2022-11-15T06:48:37.260Z,98039.59
2022-11-15T06:49:38.678Z,98033.72
2022-11-15T06:50:40.226Z,98034.81
2022-11-15T06:51:41.684Z,98037.88
2022-11-15T06:52:43.115Z,98037.22
2022-11-15T06:53:44.697Z,98032.75
2022-11-15T06:54:46.383Z,98035.38
2022-11-15T06:55:53.434Z,98032.44
2022-11-15T06:56:56.900Z,98034.63
2022-11-15T06:57:58.330Z,98034.91
2022-11-15T06:58:59.758Z,98036.47
2022-11-15T07:00:01.198Z,98030.91
2022-11-15T07:01:06.420Z,98031.03
2022-11-15T07:02:14.132Z,98030.38
2022-11-15T07:03:15.531Z,98030.81
2022-11-15T07:04:16.986Z,98032.34
2022-11-15T07:05:18.505Z,98034.63
2022-11-15T07:06:19.964Z,98027.53
2022-11-15T07:07:21.482Z,98034.00
2022-11-15T07:08:23.967Z,98029.84
2022-11-15T07:09:25.447Z,98023.53
2022-11-15T07:10:27.442Z,98023.88
2022-11-15T07:11:29.213Z,98027.25
2022-11-15T07:12:30.629Z,98029.09
2022-11-15T07:13:36.980Z,98028.97
2022-11-15T07:14:38.422Z,98032.69
2022-11-15T07:15:39.869Z,98031.91
2022-11-15T07:16:41.646Z,98027.44
2022-11-15T07:17:43.086Z,98020.78
2022-11-15T07:18:44.520Z,98026.47
2022-11-15T07:19:45.934Z,98029.53
2022-11-15T07:20:47.654Z,98021.25
2022-11-15T07:21:49.475Z,98017.09
2022-11-15T07:22:50.979Z,98018.19
2022-11-15T07:23:52.445Z,98014.94
2022-11-15T07:24:53.966Z,98017.66
2022-11-15T07:25:58.061Z,98004.38
2022-11-15T07:27:00.119Z,98005.25
2022-11-15T07:28:01.976Z,98006.09
2022-11-15T07:29:03.662Z,98005.47
2022-11-15T07:30:05.940Z,98009.59
2022-11-15T07:31:09.285Z,98006.97
2022-11-15T07:32:11.242Z,98014.84
2022-11-15T07:33:12.787Z,98019.75
2022-11-15T07:34:14.294Z,98019.75
2022-11-15T07:35:15.781Z,98019.41
2022-11-15T07:36:17.553Z,98016.94
2022-11-15T07:37:19.172Z,98016.72
2022-11-15T07:38:20.623Z,98016.72
2022-11-15T07:39:22.165Z,98017.59
2022-11-15T07:40:24.136Z,98022.59
2022-11-15T07:41:25.961Z,98012.22
2022-11-15T07:42:45.922Z,98011.56
2022-11-15T07:43:47.370Z,98013.22
2022-11-15T07:44:48.845Z,98021.19
2022-11-15T07:45:52.443Z,98018.56
2022-11-15T07:46:59.373Z,98016.81
2022-11-15T07:48:00.959Z,98013.09
2022-11-15T07:49:02.426Z,98015.72
2022-11-15T07:50:04.087Z,98013.97
2022-11-15T07:51:11.250Z,98019.75
2022-11-15T07:52:15.315Z,98018.75
2022-11-15T07:53:19.859Z,98018.13
2022-11-15T07:54:21.288Z,98016.38
2022-11-15T07:55:24.033Z,98016.47
2022-11-15T07:56:25.784Z,98022.94
2022-11-15T07:57:27.245Z,98021.94
2022-11-15T07:58:28.824Z,98018.22
2022-11-15T07:59:30.280Z,98023.13
2022-11-15T08:00:32.463Z,98014.94
2022-11-15T08:01:34.259Z,98020.72
2022-11-15T08:02:35.823Z,98013.28
2022-11-15T08:03:38.404Z,98013.72
2022-11-15T08:04:39.833Z,98019.03
2022-11-15T08:05:42.839Z,98012.38
2022-11-15T08:06:44.565Z,98015.44
2022-11-15T08:07:46.189Z,98010.63
2022-11-15T08:08:48.431Z,98016.75
2022-11-15T08:09:50.092Z,98016.41
2022-11-15T08:10:52.115Z,98016.16
2022-11-15T08:11:54.045Z,98012.53
2022-11-15T08:13:00.697Z,98007.41
2022-11-15T08:14:02.191Z,97998.19
2022-11-15T08:15:04.009Z,97998.72
2022-11-15T08:16:06.815Z,98008.97
2022-11-15T08:17:08.744Z,98004.91
2022-11-15T08:18:18.014Z,98006.09
2022-11-15T08:19:19.479Z,98002.81
2022-11-15T08:20:21.032Z,98006.28
2022-11-15T08:21:23.776Z,97999.28
2022-11-15T08:22:25.341Z,98010.94
2022-11-15T08:23:26.953Z,98008.44
2022-11-15T08:24:28.427Z,98009.69
2022-11-15T08:25:31.819Z,98004.19
2022-11-15T08:26:33.920Z,98009.19
2022-11-15T08:27:35.474Z,98007.53
2022-11-15T08:28:36.966Z,98009.53
2022-11-15T08:29:38.457Z,98004.13
2022-11-15T08:30:43.215Z,98013.78
2022-11-15T08:31:45.116Z,98001.25
2022-11-15T08:32:46.626Z,98003.94
2022-11-15T08:33:48.075Z,98003.63
2022-11-15T08:34:49.541Z,98005.53
2022-11-15T08:35:51.390Z,98005.44
2022-11-15T08:36:52.941Z,98001.41
2022-11-15T08:37:54.689Z,98010.88
2022-11-15T08:38:56.298Z,98008.66
2022-11-15T08:39:57.764Z,98004.59
2022-11-15T08:41:05.358Z,98001.72
2022-11-15T08:42:06.838Z,98010.09
2022-11-15T08:43:08.399Z,98007.59
2022-11-15T08:44:09.872Z,98000.94
2022-11-15T08:45:11.821Z,98001.84
2022-11-15T08:46:15.087Z,98003.91
2022-11-15T08:47:16.571Z,97992.06
2022-11-15T08:48:18.066Z,97996.44
2022-11-15T08:49:20.156Z,97998.19
2022-11-15T08:50:21.776Z,98008.41
2022-11-15T08:51:23.661Z,97998.03
2022-11-15T08:52:25.382Z,98008.09
2022-11-15T08:53:26.876Z,98000.69
2022-11-15T08:54:28.627Z,97999.25
2022-11-15T08:55:30.286Z,97994.66
2022-11-15T08:56:32.531Z,97988.56
2022-11-15T08:57:33.998Z,97991.34
2022-11-15T08:58:36.454Z,97997.44
2022-11-15T08:59:38.260Z,97994.38
2022-11-15T09:00:39.730Z,97989.69
2022-11-15T09:01:41.202Z,97999.06
2022-11-15T09:02:42.823Z,97992.63
2022-11-15T09:03:44.418Z,97997.19
2022-11-15T09:04:45.936Z,97991.59
2022-11-15T09:05:47.443Z,97992.84
2022-11-15T09:06:49.412Z,97989.50
2022-11-15T09:07:55.078Z,97981.56
2022-11-15T09:08:57.389Z,97988.75
2022-11-15T09:09:59.485Z,97983.44
2022-11-15T09:11:05.244Z,97981.91
2022-11-15T09:12:08.304Z,97982.22
2022-11-15T09:13:09.850Z,97979.19
2022-11-15T09:14:13.166Z,97976.91
2022-11-15T09:15:15.701Z,97968.91
2022-11-15T09:16:17.317Z,97974.16
2022-11-15T09:17:24.259Z,97972.19
2022-11-15T09:18:26.695Z,97962.25
2022-11-15T09:19:28.489Z,97964.59
2022-11-15T09:20:30.243Z,97962.75
2022-11-15T09:21:32.752Z,97960.34
2022-11-15T09:22:34.615Z,97960.28
2022-11-15T09:23:36.114Z,97968.19
2022-11-15T09:24:37.605Z,97961.69
2022-11-15T09:25:39.285Z,97957.47
2022-11-15T09:26:41.770Z,97968.00
2022-11-15T09:27:43.188Z,97963.84
2022-11-15T09:28:44.736Z,97960.19
2022-11-15T09:29:46.276Z,97965.50
2022-11-15T09:30:48.109Z,97964.00
2022-11-15T09:31:49.636Z,97955.38
2022-11-15T09:32:51.371Z,97964.03
2022-11-15T09:33:52.963Z,97965.13
2022-11-15T09:34:54.409Z,97964.34
2022-11-15T09:36:01.339Z,97959.41
2022-11-15T09:37:02.830Z,97962.03
2022-11-15T09:38:05.072Z,97958.19
2022-11-15T09:39:06.614Z,97952.94
2022-11-15T09:40:12.813Z,97951.06
2022-11-15T09:41:31.538Z,97948.47
2022-11-15T09:42:51.601Z,97941.69
2022-11-15T09:44:33.927Z,97948.47
2022-11-15T09:46:04.912Z,97943.63
2022-11-15T09:47:31.390Z,97939.88
2022-11-15T09:48:57.143Z,97942.53
2022-11-15T09:50:02.612Z,97932.75
2022-11-15T09:51:06.104Z,97943.69
2022-11-15T09:52:08.952Z,97938.78
2022-11-15T09:53:14.195Z,97947.88
2022-11-15T09:54:51.777Z,97941.06
2022-11-15T09:56:05.394Z,97941.44
2022-11-15T09:57:19.853Z,97947.47
2022-11-15T09:58:27.654Z,97937.59
2022-11-15T10:01:49.295Z,97941.78
2022-11-15T10:02:58.777Z,97933.06
2022-11-15T10:04:00.431Z,97927.44
2022-11-15T10:05:03.053Z,97934.25
2022-11-15T10:06:07.564Z,97928.25
2022-11-15T10:07:35.029Z,97926.78
2022-11-15T10:09:22.665Z,97921.91
2022-11-15T10:10:37.151Z,97927.25
2022-11-15T10:11:39.891Z,97928.03
2022-11-15T10:12:46.314Z,97928.78
2022-11-15T10:13:50.396Z,97923.09
2022-11-15T10:15:01.547Z,97922.75
2022-11-15T10:16:42.937Z,97912.94
2022-11-15T10:18:13.903Z,97914.84
2022-11-15T10:19:34.130Z,97908.44
2022-11-15T10:20:47.538Z,97902.03
2022-11-15T10:22:01.428Z,97899.00
2022-11-15T10:23:08.339Z,97895.25
2022-11-15T10:24:14.294Z,97899.03
2022-11-15T10:25:20.709Z,97896.75
2022-11-15T10:26:22.698Z,97891.44
2022-11-15T10:27:24.609Z,97896.00
2022-11-15T10:28:30.181Z,97887.31
2022-11-15T10:29:31.862Z,97885.81
2022-11-15T10:30:47.953Z,97896.41
2022-11-15T10:31:50.134Z,97883.56
2022-11-15T10:32:51.622Z,97878.66
2022-11-15T10:34:17.216Z,97879.03
2022-11-15T10:35:27.932Z,97884.72
2022-11-15T10:36:29.622Z,97878.28
2022-11-15T10:37:33.250Z,97877.16
2022-11-15T10:38:53.625Z,97875.28
2022-11-15T10:40:07.379Z,97875.28
2022-11-15T10:41:09.102Z,97868.47
2022-11-15T10:42:30.325Z,97865.06
2022-11-15T10:43:31.849Z,97867.31
2022-11-15T10:44:43.215Z,97865.84
2022-11-15T10:45:45.864Z,97867.34
2022-11-15T10:46:57.908Z,97859.03
2022-11-15T10:48:14.576Z,97858.25
2022-11-15T10:49:17.664Z,97852.94
2022-11-15T10:50:31.652Z,97861.25
2022-11-15T10:51:44.465Z,97862.59
2022-11-15T10:52:48.668Z,97857.13
2022-11-15T10:53:52.392Z,97856.47
2022-11-15T10:55:02.440Z,97862.88
2022-11-15T10:56:12.790Z,97865.22
2022-11-15T10:57:24.950Z,97856.03
2022-11-15T10:58:45.124Z,97856.78
2022-11-15T10:59:52.428Z,97847.41
2022-11-15T11:00:54.889Z,97854.66
2022-11-15T11:01:57.106Z,97841.16
2022-11-15T11:03:08.082Z,97841.50
2022-11-15T11:04:10.649Z,97836.38
2022-11-15T11:05:39.648Z,97842.50
2022-11-15T11:06:59.118Z,97841.78
2022-11-15T11:08:03.886Z,97836.56
2022-11-15T11:09:06.903Z,97833.59
2022-11-15T11:10:44.027Z,97841.50
2022-11-15T11:11:53.602Z,97840.13
2022-11-15T11:12:55.516Z,97833.75
2022-11-15T11:14:13.300Z,97833.91
2022-11-15T11:15:16.701Z,97820.72
2022-11-15T11:16:46.093Z,97825.63
2022-11-15T11:18:10.352Z,97824.56
2022-11-15T11:19:33.072Z,97826.09
2022-11-15T11:21:00.976Z,97818.22
2022-11-15T11:22:07.151Z,97824.25
2022-11-15T11:23:20.584Z,97822.25
2022-11-15T11:24:43.582Z,97822.31
2022-11-15T11:26:12.886Z,97812.69
2022-11-15T11:27:37.742Z,97815.19
2022-11-15T11:28:54.934Z,97810.66
2022-11-15T11:30:15.009Z,97814.81
2022-11-15T11:31:41.368Z,97823.75
2022-11-15T11:32:53.884Z,97806.19
2022-11-15T11:33:59.517Z,97818.34
2022-11-15T11:35:38.613Z,97809.41
2022-11-15T11:37:03.221Z,97808.75
2022-11-15T11:38:41.708Z,97805.00
2022-11-15T11:40:19.653Z,97805.84
2022-11-15T11:41:36.364Z,97802.91
2022-11-15T11:42:50.466Z,97794.50
2022-11-15T11:44:23.443Z,97790.69
2022-11-15T11:45:36.913Z,97792.28
2022-11-15T11:46:57.654Z,97788.03
2022-11-15T11:48:13.978Z,97785.38
2022-11-15T11:49:21.970Z,97786.56
2022-11-15T11:50:33.256Z,97782.75
2022-11-15T11:51:41.858Z,97779.31
2022-11-15T11:53:12.458Z,97787.66
2022-11-15T11:54:21.616Z,97783.88
2022-11-15T11:55:29.230Z,97780.03
2022-11-15T11:56:34.445Z,97779.63
2022-11-15T11:57:52.582Z,97777.75
2022-11-15T11:59:00.390Z,97776.63
2022-11-15T12:00:16.809Z,97773.97
2022-11-15T12:01:24.257Z,97762.53
2022-11-15T12:02:51.761Z,97780.69
2022-11-15T12:04:20.823Z,97778.06
2022-11-15T12:05:41.284Z,97766.28
2022-11-15T12:06:49.040Z,97766.03
2022-11-15T12:07:55.595Z,97765.63
2022-11-15T12:09:16.556Z,97772.84
2022-11-15T12:10:32.108Z,97760.00
2022-11-15T12:12:07.579Z,97767.91
2022-11-15T12:13:17.716Z,97768.16
2022-11-15T12:14:31.189Z,97761.66
2022-11-15T12:15:46.325Z,97760.59
2022-11-15T12:16:47.711Z,97765.53
2022-11-15T12:17:49.576Z,97760.19
2022-11-15T12:18:54.156Z,97762.88
2022-11-15T12:20:00.701Z,97766.63
2022-11-15T12:21:08.968Z,97759.41
2022-11-15T12:22:10.772Z,97763.91
2022-11-15T12:23:30.067Z,97759.28
2022-11-15T12:24:42.515Z,97764.13
2022-11-15T12:25:52.784Z,97755.72
2022-11-15T12:27:28.183Z,97757.66
2022-11-15T12:28:38.479Z,97758.38
2022-11-15T12:29:55.141Z,97759.09
2022-11-15T12:31:04.108Z,97757.97
2022-11-15T12:32:13.762Z,97753.38
2022-11-15T12:33:47.792Z,97757.22
2022-11-15T12:34:50.154Z,97752.44
2022-11-15T12:36:19.169Z,97751.31
2022-11-15T12:37:39.557Z,97754.28
2022-11-15T12:38:56.003Z,97747.78
2022-11-15T12:40:05.345Z,97754.97
2022-11-15T12:41:15.534Z,97757.97
2022-11-15T12:42:23.064Z,97753.47
2022-11-15T12:43:43.059Z,97751.19
2022-11-15T12:44:44.487Z,97748.53
2022-11-15T12:45:46.931Z,97746.69
2022-11-15T12:46:48.593Z,97744.84
2022-11-15T12:47:50.106Z,97745.16
2022-11-15T12:48:54.726Z,97742.84
2022-11-15T12:49:56.326Z,97750.84
2022-11-15T12:50:59.415Z,97740.56
2022-11-15T12:52:00.890Z,97737.47
2022-11-15T12:53:37.670Z,97737.84
2022-11-15T12:54:41.935Z,97733.59
2022-11-15T12:55:43.433Z,97730.59
2022-11-15T12:56:44.899Z,97734.34
2022-11-15T12:57:46.831Z,97738.16
2022-11-15T12:58:50.040Z,97740.44
2022-11-15T12:59:59.825Z,97736.00
2022-11-15T13:01:01.388Z,97734.19
2022-11-15T13:02:03.456Z,97733.78
2022-11-15T13:03:25.766Z,97725.44